Time;durP1;ratioP1;P1;durP2;ratioP2;P2;SDS_P1;SDS_P2;PMS_P1;PMS_P2;Temp;Humidity;BMP_temperature;BMP_pressure;BME280_temperature;BME280_humidity;BME280_pressure;Samples;Min_cycle;Max_cycle;Signal;HPM_P1;HPM_P2
2021/12/21 06:27:21;;;;;;;6.40;4.17;;;;;;;-6.42;83.63;98012.37;1816121;78;20931;-65
2021/12/21 06:29:48;;;;;;;5.97;2.98;;;;;;;-6.56;83.45;98024.93;1819537;78;21830;-65
2021/12/21 06:32:16;;;;;;;3.10;2.37;;;;;;;-6.56;83.45;98024.93;1811364;78;21467;-63
2021/12/21 06:34:44;;;;;;;4.20;2.20;;;;;;;-6.59;83.59;98022.68;1816339;78;21363;-62
2021/12/21 06:37:12;;;;;;;5.65;2.22;;;;;;;-6.61;83.63;98020.75;1815176;78;21416;-62
2021/12/21 06:39:41;;;;;;;2.98;1.87;;;;;;;-6.56;83.72;98015.81;1814768;78;20932;-60
2021/12/21 06:42:10;;;;;;;3.83;2.35;;;;;;;-6.49;83.58;98020.61;1815970;78;21689;-65
2021/12/21 06:44:42;;;;;;;5.08;2.52;;;;;;;-6.41;83.66;98024.43;1800092;78;20956;-61
2021/12/21 06:51:14;;;;;;;5.30;2.72;;;;;;;-6.33;83.50;98025.13;1813870;78;21013;-60
2021/12/21 06:52:23;;;;;;;4.28;2.75;;;;;;;-6.15;83.22;98027.34;1813806;78;21633;-62
2021/12/21 06:54:50;;;;;;;6.03;3.02;;;;;;;-6.12;83.00;98033.47;1812863;78;21003;-58
2021/12/21 06:57:17;;;;;;;4.70;3.10;;;;;;;-6.08;82.94;98024.31;1814886;78;21528;-67
2021/12/21 06:59:45;;;;;;;6.10;2.90;;;;;;;-6.02;82.60;98030.57;1818113;78;21002;-64
2021/12/21 07:02:13;;;;;;;6.25;3.35;;;;;;;-5.98;82.25;98030.02;1798102;78;21453;-60
2021/12/21 07:04:42;;;;;;;5.70;2.72;;;;;;;-5.94;81.82;98033.08;1769678;80;21246;-57
2021/12/21 07:07:10;;;;;;;5.45;3.37;;;;;;;-5.97;80.85;98034.25;1748480;81;21690;-64
2021/12/21 07:09:43;;;;;;;5.35;3.55;;;;;;;-6.05;80.41;98038.27;1747261;81;21497;-67
2021/12/21 07:20:08;;;;;;;4.40;2.33;;;;;;;-6.53;77.93;98070.18;1754174;81;21140;-65
2021/12/21 07:22:35;;;;;;;3.72;2.30;;;;;;;-6.65;76.60;98075.52;1743669;81;21539;-62
2021/12/21 07:25:03;;;;;;;5.37;2.50;;;;;;;-6.77;76.47;98076.95;1754632;81;21017;-65
2021/12/21 07:27:30;;;;;;;3.52;2.25;;;;;;;-6.83;76.35;98086.31;1757008;81;21482;-65
2021/12/21 07:29:58;;;;;;;5.58;2.10;;;;;;;-6.87;75.31;98085.02;1756576;81;21628;-60
2021/12/21 07:32:25;;;;;;;3.72;2.27;;;;;;;-6.90;75.43;98087.98;1745898;81;21097;-58
2021/12/21 07:34:52;;;;;;;6.87;2.85;;;;;;;-6.91;74.93;98103.80;1750975;81;21074;-62
2021/12/21 07:37:18;;;;;;;9.65;2.80;;;;;;;-6.90;74.18;98104.12;1739118;81;21108;-61
2021/12/21 07:39:46;;;;;;;10.45;3.40;;;;;;;-6.93;72.56;98107.07;1736448;81;21644;-68
2021/12/21 07:42:14;;;;;;;4.58;2.55;;;;;;;-7.00;72.72;98109.58;1752688;81;21135;-66
2021/12/21 07:44:40;;;;;;;12.37;2.87;;;;;;;-6.99;72.89;98117.20;1754898;81;21136;-67
2021/12/21 07:47:07;;;;;;;10.55;2.90;;;;;;;-6.95;72.46;98121.06;1755237;81;21125;-61
2021/12/21 07:49:35;;;;;;;6.55;2.60;;;;;;;-6.88;72.10;98134.21;1749214;81;21146;-58
2021/12/21 07:52:02;;;;;;;9.33;2.87;;;;;;;-6.84;71.31;98144.59;1748506;81;21530;-61
2021/12/21 07:54:29;;;;;;;4.72;1.80;;;;;;;-6.84;69.98;98148.49;1744968;81;21599;-65
2021/12/21 07:56:56;;;;;;;4.62;2.10;;;;;;;-6.90;68.07;98154.39;1750428;81;21337;-62
2021/12/21 07:59:24;;;;;;;3.15;1.95;;;;;;;-6.96;67.79;98159.83;1746517;81;21054;-62
2021/12/21 08:26:47;;;;;;;6.17;2.43;;;;;;;-7.82;62.35;98220.89;1873098;75;27234;-63
2021/12/21 08:29:15;;;;;;;7.67;2.60;;;;;;;-7.87;62.95;98229.68;1845648;77;20880;-65
2021/12/21 08:31:42;;;;;;;6.60;2.50;;;;;;;-7.87;62.95;98229.68;1848484;77;21486;-66
2021/12/21 08:34:11;;;;;;;8.75;2.10;;;;;;;-7.85;62.46;98232.92;1827531;77;20974;-67
2021/12/21 08:36:38;;;;;;;4.33;2.30;;;;;;;-7.86;62.20;98238.60;1856252;77;20919;-70
2021/12/21 08:39:07;;;;;;;8.25;3.00;;;;;;;-7.85;61.63;98232.92;1842473;77;20963;-65
2021/12/21 08:41:40;;;;;;;5.30;2.55;;;;;;;-7.81;60.01;98244.11;1855578;77;20939;-61
2021/12/21 08:44:04;;;;;;;7.95;3.02;;;;;;;-7.80;60.98;98239.25;1847096;77;22352;-65
2021/12/21 08:46:31;;;;;;;6.95;2.70;;;;;;;-7.71;60.96;98234.33;1838242;77;20960;-65
2021/12/21 08:48:58;;;;;;;8.33;2.77;;;;;;;-7.65;59.16;98241.92;1846368;77;21033;-65
2021/12/21 08:51:25;;;;;;;5.97;3.00;;;;;;;-7.59;58.96;98239.96;1826496;78;21497;-66
2021/12/21 08:53:52;;;;;;;9.55;3.20;;;;;;;-7.41;59.01;98243.11;1827296;78;20984;-62
2021/12/21 08:56:19;;;;;;;7.87;2.77;;;;;;;-7.13;58.53;98237.73;1795712;78;21429;-65
2021/12/21 08:58:46;;;;;;;6.90;3.58;;;;;;;-6.95;58.33;98235.64;1831304;77;20904;-68
2021/12/21 09:01:14;;;;;;;8.15;3.55;;;;;;;-6.87;56.75;98244.38;1840883;77;21013;-62
2021/12/21 09:03:40;;;;;;;10.38;5.50;;;;;;;-6.88;57.80;98246.20;1848694;77;21460;-71
2021/12/21 09:06:10;;;;;;;10.63;4.83;;;;;;;-6.68;57.20;98250.42;1826501;78;20939;-67
2021/12/21 09:08:37;;;;;;;8.60;3.90;;;;;;;-6.53;56.24;98249.98;1835508;77;21121;-68
2021/12/21 09:11:05;;;;;;;6.53;3.52;;;;;;;-6.39;55.97;98258.33;1849871;77;20997;-62
2021/12/21 09:13:32;;;;;;;7.47;4.03;;;;;;;-6.30;55.83;98256.78;1855622;77;20954;-65
2021/12/21 09:15:59;;;;;;;4.87;2.95;;;;;;;-6.19;55.54;98258.64;1861572;77;20876;-65
2021/12/21 09:18:27;;;;;;;7.60;3.25;;;;;;;-6.12;55.22;98264.25;1828749;77;20928;-60
2021/12/21 09:20:54;;;;;;;6.42;2.98;;;;;;;-6.01;54.40;98261.70;1827742;78;21125;-63
2021/12/21 09:23:22;;;;;;;8.88;3.83;;;;;;;-5.87;53.89;98264.81;1827768;78;20885;-61
2021/12/21 09:25:51;;;;;;;9.88;5.05;;;;;;;-5.78;54.07;98264.52;1824336;77;21494;-64
2021/12/21 09:28:18;;;;;;;5.87;3.22;;;;;;;-5.70;53.88;98265.71;1800313;78;20936;-67
2021/12/21 09:30:45;;;;;;;11.85;3.37;;;;;;;-5.65;52.72;98269.89;1810038;78;21075;-61
2021/12/21 09:33:13;;;;;;;10.05;4.85;;;;;;;-5.67;52.08;98274.49;1809937;78;21125;-68
2021/12/21 09:35:40;;;;;;;6.50;3.67;;;;;;;-5.78;52.62;98275.44;1815364;79;20954;-61
2021/12/21 09:38:06;;;;;;;9.00;3.85;;;;;;;-5.77;52.58;98269.25;1809585;79;20909;-61
2021/12/21 09:40:39;;;;;;;8.50;4.15;;;;;;;-5.78;52.79;98274.95;1815888;79;20949;-61
2021/12/21 09:43:03;;;;;;;10.23;4.20;;;;;;;-5.80;52.54;98282.16;1816115;78;20882;-60
2021/12/21 09:45:30;;;;;;;8.25;3.62;;;;;;;-5.77;52.19;98275.25;1810995;78;21728;-67
2021/12/21 09:47:57;;;;;;;13.70;2.85;;;;;;;-5.68;51.84;98276.80;1805303;78;21434;-64
2021/12/21 09:50:25;;;;;;;4.30;2.45;;;;;;;-5.68;52.00;98268.98;1813108;78;20907;-63
2021/12/21 09:52:54;;;;;;;5.00;2.40;;;;;;;-5.65;51.03;98275.60;1806078;78;21371;-62
2021/12/21 09:55:23;;;;;;;6.62;2.98;;;;;;;-5.61;51.00;98273.78;1825409;77;21583;-65
2021/12/21 09:57:52;;;;;;;6.47;2.00;;;;;;;-5.56;51.93;98276.64;1768139;80;21008;-65
2021/12/21 10:00:23;;;;;;;4.65;2.47;;;;;;;-5.52;51.23;98276.28;1744564;80;21748;-63
2021/12/21 10:02:51;;;;;;;6.90;2.80;;;;;;;-5.58;50.80;98281.23;1743387;80;21119;-59
2021/12/21 10:05:24;;;;;;;4.50;2.17;;;;;;;-5.55;50.70;98282.67;1772725;79;21002;-62
2021/12/21 10:08:05;;;;;;;2.90;2.00;;;;;;;-5.45;49.77;98286.31;1769057;80;21541;-63
2021/12/21 10:10:38;;;;;;;3.72;2.10;;;;;;;-5.39;50.38;98286.91;1809068;78;21144;-67
2021/12/21 10:13:16;;;;;;;5.12;2.40;;;;;;;-5.32;49.11;98283.88;1811211;77;21042;-61
2021/12/21 10:15:51;;;;;;;4.62;2.22;;;;;;;-5.35;50.23;98286.84;1826792;77;20974;-62
2021/12/21 10:18:33;;;;;;;6.22;2.50;;;;;;;-5.33;49.49;98288.77;1816012;77;21081;-66
2021/12/21 10:21:03;;;;;;;7.37;2.30;;;;;;;-5.35;50.51;98289.45;1812704;77;21000;-61
2021/12/21 10:23:37;;;;;;;3.85;2.10;;;;;;;-5.31;49.69;98288.91;1815006;77;21257;-65
2021/12/21 10:26:12;;;;;;;4.53;2.40;;;;;;;-5.44;48.60;98286.64;1815609;78;21094;-65
2021/12/21 10:28:52;;;;;;;5.40;2.50;;;;;;;-5.51;49.61;98281.83;1814971;79;20908;-62
2021/12/21 10:31:32;;;;;;;6.12;2.55;;;;;;;-5.47;49.92;98279.98;1815878;79;20940;-64
2021/12/21 10:34:01;;;;;;;4.83;2.67;;;;;;;-5.34;50.39;98279.31;1817157;78;20922;-65
2021/12/21 10:36:29;;;;;;;5.28;2.80;;;;;;;-5.33;50.14;98274.41;1836619;77;21067;-65
2021/12/21 10:39:00;;;;;;;5.22;2.60;;;;;;;-5.25;50.99;98276.93;1839231;77;20865;-63
2021/12/21 10:41:33;;;;;;;4.85;2.85;;;;;;;-5.19;49.46;98276.19;1840411;77;20868;-61
2021/12/21 10:44:16;;;;;;;6.00;3.12;;;;;;;-5.24;50.47;98268.09;1833697;77;21010;-61
2021/12/21 10:46:47;;;;;;;5.55;2.62;;;;;;;-5.24;51.11;98278.53;1826596;77;20927;-61
2021/12/21 10:49:21;;;;;;;5.87;2.87;;;;;;;-5.21;49.63;98280.78;1843038;77;21766;-61
2021/12/21 10:52:05;;;;;;;7.08;3.70;;;;;;;-5.32;49.92;98282.57;1840790;77;21018;-61
2021/12/21 10:54:36;;;;;;;5.75;2.98;;;;;;;-5.41;49.88;98281.84;1817109;77;21009;-61
2021/12/21 10:57:16;;;;;;;4.92;2.55;;;;;;;-5.38;50.62;98288.50;1809935;77;21109;-64
2021/12/21 10:59:48;;;;;;;6.67;3.02;;;;;;;-5.49;49.43;98291.59;1816650;77;20980;-59
2021/12/21 11:02:25;;;;;;;4.47;2.90;;;;;;;-5.61;50.20;98293.36;1820069;77;21687;-67
2021/12/21 11:04:57;;;;;;;6.40;2.92;;;;;;;-5.69;49.89;98294.74;1824724;78;20963;-64
2021/12/21 11:07:32;;;;;;;4.35;2.45;;;;;;;-5.78;50.58;98297.62;1817022;78;20963;-68
2021/12/21 11:10:16;;;;;;;4.70;2.67;;;;;;;-5.88;49.64;98299.70;1814988;78;20951;-67
2021/12/21 11:12:57;;;;;;;6.20;2.70;;;;;;;-5.99;49.68;98294.45;1815354;78;20903;-62
2021/12/21 11:15:32;;;;;;;7.85;3.45;;;;;;;-5.97;49.97;98298.99;1814830;79;21114;-66
2021/12/21 11:18:03;;;;;;;4.90;3.10;;;;;;;-5.80;50.69;98304.33;1815134;78;20845;-60
2021/12/21 11:20:29;;;;;;;5.87;3.10;;;;;;;-5.65;50.26;98301.21;1818489;78;20908;-65
2021/12/21 11:22:56;;;;;;;6.97;3.27;;;;;;;-5.45;50.17;98301.48;1815210;78;21018;-64
2021/12/21 11:25:23;;;;;;;5.85;3.47;;;;;;;-5.30;50.01;98301.47;1819516;78;20934;-61
2021/12/21 11:27:51;;;;;;;3.62;2.47;;;;;;;-5.23;50.45;98306.28;1815292;78;21117;-64
2021/12/21 11:30:22;;;;;;;4.05;1.90;;;;;;;-5.25;49.72;98306.96;1821531;78;21383;-60
2021/12/21 11:32:51;;;;;;;3.15;2.05;;;;;;;-5.39;49.17;98312.49;1816065;78;21033;-62
2021/12/21 11:37:56;;;;;;;3.72;1.82;;;;;;;-5.78;50.82;98315.39;1815101;79;21420;-64
2021/12/21 11:40:29;;;;;;;5.08;1.98;;;;;;;-5.74;51.30;98321.87;1819227;78;21691;-63
2021/12/21 11:43:25;;;;;;;4.83;2.60;;;;;;;-5.56;51.58;98319.70;1818136;78;20893;-64
2021/12/21 11:45:57;;;;;;;2.15;1.65;;;;;;;-5.29;51.70;98327.88;1825422;78;20919;-65
2021/12/21 11:48:40;;;;;;;4.47;1.90;;;;;;;-5.06;50.33;98316.80;1812066;78;20938;-59
2021/12/21 11:51:09;;;;;;;4.53;1.90;;;;;;;-4.95;50.25;98313.73;1820049;78;20919;-60
2021/12/21 11:53:37;;;;;;;3.17;2.80;;;;;;;-4.92;50.78;98320.70;1820613;78;21066;-62
2021/12/21 11:56:06;;;;;;;3.72;2.30;;;;;;;-4.83;51.42;98317.49;1815734;78;20908;-65
2021/12/21 11:58:41;;;;;;;4.70;2.92;;;;;;;-4.67;52.01;98312.02;1820019;78;20959;-64
2021/12/21 12:01:19;;;;;;;5.08;2.77;;;;;;;-4.54;51.19;98317.37;1816962;78;20916;-63
2021/12/21 12:04:00;;;;;;;3.95;2.58;;;;;;;-4.46;51.25;98317.26;1817791;78;21532;-61
2021/12/21 12:06:30;;;;;;;4.87;3.17;;;;;;;-4.36;50.85;98308.58;1827435;78;21113;-66
2021/12/21 12:09:05;;;;;;;6.90;3.00;;;;;;;-4.42;49.55;98319.80;1817737;78;20889;-57
2021/12/21 12:11:39;;;;;;;4.22;2.75;;;;;;;-4.65;49.71;98329.64;1833597;77;21356;-62
2021/12/21 12:14:14;;;;;;;4.47;2.95;;;;;;;-4.91;50.56;98328.05;1774719;79;21395;-71
2021/12/21 12:16:55;;;;;;;6.90;3.15;;;;;;;-5.10;50.68;98331.23;1783377;79;21003;-61
2021/12/21 12:19:48;;;;;;;;;;;;;;;;;;;;;
2021/12/21 12:22:13;;;;;;;4.65;2.80;;;;;;;-5.38;52.08;98331.09;1729392;80;21261;-59
2021/12/21 12:24:46;;;;;;;5.17;3.02;;;;;;;-5.24;52.19;98340.72;1777929;79;21045;-62
2021/12/21 12:27:21;;;;;;;5.15;2.65;;;;;;;-5.13;51.94;98326.37;1778898;79;20948;-67
2021/12/21 12:30:01;;;;;;;5.95;2.85;;;;;;;-4.97;51.63;98334.02;1784333;79;20936;-64
2021/12/21 12:32:35;;;;;;;4.40;3.05;;;;;;;-4.96;51.76;98330.39;1794286;79;21320;-65
2021/12/21 12:35:13;;;;;;;6.97;3.50;;;;;;;-4.87;51.94;98329.28;1792598;78;20978;-67
2021/12/21 12:38:01;;;;;;;5.72;3.12;;;;;;;-4.80;51.54;98330.17;1797680;79;21509;-61
2021/12/21 12:40:35;;;;;;;9.85;3.67;;;;;;;-4.85;52.11;98332.52;1772367;80;20932;-61
2021/12/21 12:43:18;;;;;;;5.92;3.47;;;;;;;-4.97;51.87;98328.80;1758061;80;21413;-63
2021/12/21 12:45:51;;;;;;;7.28;3.10;;;;;;;-5.10;52.16;98329.93;1759328;80;21078;-66
2021/12/21 12:48:32;;;;;;;5.50;3.50;;;;;;;-5.21;52.86;98316.04;1809157;78;21029;-61
2021/12/21 12:51:04;;;;;;;5.47;3.60;;;;;;;-5.29;53.05;98321.35;1734748;81;21112;-62
2021/12/21 12:53:43;;;;;;;6.28;2.98;;;;;;;-5.37;53.49;98323.56;1788852;79;21502;-63
2021/12/21 12:56:14;;;;;;;4.00;2.87;;;;;;;-5.40;53.81;98323.13;1747009;80;21095;-63
2021/12/21 12:58:59;;;;;;;4.35;2.90;;;;;;;-5.49;53.83;98325.52;1755755;80;21884;-58
2021/12/21 13:01:28;;;;;;;6.67;3.83;;;;;;;-5.66;54.20;98325.70;1746343;80;20967;-65
2021/12/21 13:03:59;;;;;;;5.75;3.40;;;;;;;-5.78;54.07;98321.92;1767058;80;21027;-58
2021/12/21 13:06:33;;;;;;;5.43;3.50;;;;;;;-5.84;54.58;98331.75;1739205;81;21103;-61
2021/12/21 13:08:59;;;;;;;4.72;2.52;;;;;;;-5.99;54.63;98328.36;1735633;81;20966;-66
2021/12/21 13:11:29;;;;;;;4.35;2.83;;;;;;;-6.10;54.64;98330.06;1780264;79;21122;-65
2021/12/21 13:14:00;;;;;;;7.17;3.15;;;;;;;-6.18;55.04;98329.34;1780336;79;20857;-62
2021/12/21 13:16:33;;;;;;;7.80;3.35;;;;;;;-6.26;55.34;98330.22;1736451;82;20935;-62
2021/12/21 13:19:08;;;;;;;6.80;3.67;;;;;;;-6.40;55.35;98333.59;1758697;80;20963;-64
2021/12/21 13:21:48;;;;;;;5.45;3.17;;;;;;;-6.47;55.67;98335.27;1788776;79;21002;-62
2021/12/21 13:24:18;;;;;;;8.70;3.33;;;;;;;-6.58;55.83;98337.81;1791626;79;21093;-66
2021/12/21 13:26:50;;;;;;;8.30;3.45;;;;;;;-6.63;55.90;98342.73;1770348;80;20858;-63
2021/12/21 13:29:22;;;;;;;4.37;2.83;;;;;;;-6.67;56.06;98344.55;1770879;79;21423;-65
2021/12/21 13:31:58;;;;;;;6.65;3.67;;;;;;;-6.73;55.59;98351.73;1839465;77;21436;-70
2021/12/21 13:34:27;;;;;;;5.28;3.22;;;;;;;-6.72;55.77;98354.67;1829665;77;20907;-64
2021/12/21 13:37:03;;;;;;;5.90;3.10;;;;;;;-6.77;55.75;98359.58;1812053;77;21127;-60
2021/12/21 13:39:35;;;;;;;6.97;3.55;;;;;;;-6.83;55.67;98361.59;1818893;77;20932;-66
2021/12/21 13:42:10;;;;;;;5.55;3.08;;;;;;;-6.93;55.89;98364.89;1766022;80;20928;-67
2021/12/21 13:44:55;;;;;;;4.12;2.80;;;;;;;-6.98;55.45;98371.43;1771114;80;21551;-63
2021/12/21 13:47:34;;;;;;;6.45;2.95;;;;;;;-7.01;55.75;98363.13;1758431;80;20926;-62
2021/12/21 13:50:14;;;;;;;6.53;3.27;;;;;;;-7.05;56.08;98373.09;1815963;78;21156;-64
2021/12/21 13:52:44;;;;;;;5.97;2.90;;;;;;;-7.07;56.01;98371.16;1806450;78;20923;-61
2021/12/21 13:55:29;;;;;;;7.30;3.25;;;;;;;-7.11;56.10;98372.45;1814777;79;21014;-64
2021/12/21 13:58:00;;;;;;;5.90;3.20;;;;;;;-7.15;56.07;98367.75;1809768;78;20880;-69
2021/12/21 14:00:28;;;;;;;7.05;3.08;;;;;;;-7.14;56.48;98371.99;1789321;78;20911;-63
2021/12/21 14:03:16;;;;;;;5.67;3.12;;;;;;;-7.17;56.47;98372.32;1810023;79;21109;-62
2021/12/21 14:05:44;;;;;;;5.83;3.27;;;;;;;-7.22;56.42;98368.92;1799537;78;21402;-66
2021/12/21 14:08:15;;;;;;;10.25;3.27;;;;;;;-7.23;56.44;98371.71;1807228;78;20955;-67
2021/12/21 14:10:46;;;;;;;7.53;3.80;;;;;;;-7.22;56.39;98379.34;1815290;77;20975;-67
2021/12/21 14:13:15;;;;;;;7.80;3.75;;;;;;;-7.26;56.51;98384.57;1815266;77;20963;-60
2021/12/21 14:15:47;;;;;;;4.60;2.92;;;;;;;-7.30;56.62;98381.96;1820470;77;21113;-66
2021/12/21 14:18:18;;;;;;;4.58;2.83;;;;;;;-7.26;56.31;98380.67;1753772;80;20924;-66
2021/12/21 14:20:44;;;;;;;6.05;3.12;;;;;;;-7.24;56.44;98379.19;1800022;78;20959;-62
2021/12/21 14:23:19;;;;;;;7.53;3.40;;;;;;;-7.22;56.32;98377.22;1832559;77;20926;-63
2021/12/21 14:25:46;;;;;;;6.70;3.60;;;;;;;-7.22;56.40;98376.73;1770116;79;21036;-61
2021/12/21 14:28:14;;;;;;;5.62;3.50;;;;;;;-7.23;56.47;98379.52;1765496;79;21916;-67
2021/12/21 14:30:40;;;;;;;6.72;4.08;;;;;;;-7.24;57.00;98372.19;1738000;79;21011;-64
2021/12/21 14:33:27;;;;;;;9.15;4.17;;;;;;;-7.23;56.71;98364.69;1761136;80;20974;-65
2021/12/21 14:35:51;;;;;;;9.30;4.08;;;;;;;-7.23;56.41;98369.89;1805960;77;20927;-65
2021/12/21 14:38:19;;;;;;;8.45;4.40;;;;;;;-7.25;56.48;98371.04;1849714;77;20832;-67
2021/12/21 14:40:50;;;;;;;9.38;4.42;;;;;;;-7.28;56.74;98369.62;1804724;77;21071;-68
2021/12/21 14:43:27;;;;;;;9.93;5.25;;;;;;;-7.26;56.74;98373.34;1815482;77;20823;-63
2021/12/21 14:45:55;;;;;;;7.92;4.70;;;;;;;-7.25;57.05;98369.26;1844683;77;20898;-64
2021/12/21 14:48:25;;;;;;;9.48;5.03;;;;;;;-7.29;56.89;98364.56;1838025;77;20943;-63
2021/12/21 14:50:57;;;;;;;8.20;3.92;;;;;;;-7.29;57.05;98365.38;1833787;77;21076;-63
2021/12/21 14:53:31;;;;;;;9.33;4.83;;;;;;;-7.26;56.81;98365.05;1752164;80;21079;-66
2021/12/21 14:55:53;;;;;;;10.95;5.47;;;;;;;-7.29;57.19;98358.87;1745601;81;20959;-61
2021/12/21 14:58:20;;;;;;;9.75;6.28;;;;;;;-7.31;57.45;98356.93;1764195;80;21415;-60
2021/12/21 15:01:00;;;;;;;16.45;9.28;;;;;;;-7.31;57.72;98359.53;1758792;80;21015;-68
2021/12/21 15:03:24;;;;;;;13.53;7.28;;;;;;;-7.28;57.28;98359.20;1815826;77;20933;-64
2021/12/21 15:05:51;;;;;;;15.10;9.20;;;;;;;-7.26;57.46;98357.72;1813067;77;21744;-67
2021/12/21 15:08:20;;;;;;;12.13;6.78;;;;;;;-7.22;57.76;98351.19;1818091;77;20910;-60
2021/12/21 15:10:48;;;;;;;9.30;6.10;;;;;;;-7.17;57.63;98357.52;1813859;77;21047;-58
2021/12/21 15:13:17;;;;;;;10.90;5.92;;;;;;;-7.18;57.77;98349.86;1815338;77;20920;-65
2021/12/21 15:15:47;;;;;;;8.68;4.15;;;;;;;-7.15;58.02;98351.65;1805108;78;20887;-64
2021/12/21 15:18:15;;;;;;;13.58;7.72;;;;;;;-7.14;57.80;98356.38;1817585;78;21086;-61
2021/12/21 15:20:41;;;;;;;8.88;5.50;;;;;;;-7.23;57.74;98353.48;1832789;78;20889;-64
2021/12/21 15:23:08;;;;;;;12.40;7.35;;;;;;;-7.25;57.58;98352.34;1820117;77;20969;-60
2021/12/21 15:25:36;;;;;;;6.92;3.75;;;;;;;-7.24;57.81;98354.45;1820503;77;20923;-65
2021/12/21 15:28:03;;;;;;;7.25;4.25;;;;;;;-7.25;57.61;98360.14;1816765;77;20931;-62
2021/12/21 15:30:31;;;;;;;6.30;3.83;;;;;;;-7.32;57.70;98360.98;1776832;80;21911;-65
2021/12/21 15:32:58;;;;;;;6.40;3.90;;;;;;;-7.32;57.74;98361.80;1775814;80;21354;-66
2021/12/21 15:35:27;;;;;;;6.25;3.52;;;;;;;-7.29;57.71;98360.66;1775937;80;20957;-66
2021/12/21 15:37:54;;;;;;;6.90;3.83;;;;;;;-7.35;57.44;98364.77;1769273;79;21467;-61
2021/12/21 15:40:23;;;;;;;6.40;3.67;;;;;;;-7.38;57.32;98361.67;1772633;80;21018;-61
2021/12/21 15:42:50;;;;;;;7.08;4.10;;;;;;;-7.41;57.46;98360.21;1776423;80;21716;-62
2021/12/21 15:45:17;;;;;;;6.05;3.92;;;;;;;-7.44;57.65;98368.34;1810289;78;20885;-61
2021/12/21 15:47:44;;;;;;;8.00;3.85;;;;;;;-7.46;57.93;98370.31;1811381;79;20914;-66
2021/12/21 15:50:12;;;;;;;6.47;3.15;;;;;;;-7.45;57.72;98377.15;1822102;78;21451;-65
2021/12/21 15:52:38;;;;;;;6.47;3.17;;;;;;;-7.43;57.31;98371.28;1802198;78;20917;-66
2021/12/21 15:55:08;;;;;;;6.67;4.20;;;;;;;-7.49;57.85;98374.56;1783983;79;21270;-66
2021/12/21 15:57:36;;;;;;;7.37;3.85;;;;;;;-7.47;57.59;98375.20;1811844;78;20996;-61
2021/12/21 16:00:06;;;;;;;8.08;4.03;;;;;;;-7.45;57.57;98375.03;1821644;78;20898;-61
2021/12/21 16:02:34;;;;;;;6.37;3.95;;;;;;;-7.41;57.79;98376.31;1809586;78;20954;-63
2021/12/21 16:05:01;;;;;;;7.75;3.75;;;;;;;-7.43;57.93;98373.06;1813721;78;20835;-65
2021/12/21 16:07:28;;;;;;;7.92;4.00;;;;;;;-7.49;58.30;98373.27;1810421;78;21113;-60
2021/12/21 16:09:55;;;;;;;6.78;3.58;;;;;;;-7.47;58.31;98374.39;1794067;78;21032;-63
2021/12/21 16:12:23;;;;;;;8.78;3.90;;;;;;;-7.42;58.57;98382.51;1808414;78;20917;-65
2021/12/21 16:14:50;;;;;;;6.60;3.72;;;;;;;-7.35;58.05;98375.66;1811681;78;20886;-65
2021/12/21 16:17:17;;;;;;;9.68;5.08;;;;;;;-7.36;58.48;98377.44;1815828;79;20858;-63
2021/12/21 16:19:44;;;;;;;6.87;4.10;;;;;;;-7.40;58.17;98383.97;1815762;79;21121;-65
2021/12/21 16:22:12;;;;;;;7.35;4.33;;;;;;;-7.43;57.97;98378.27;1815712;78;20960;-60
2021/12/21 16:24:42;;;;;;;10.63;4.42;;;;;;;-7.48;58.09;98381.38;1807160;78;20902;-59
2021/12/21 16:27:10;;;;;;;6.05;3.65;;;;;;;-7.50;58.29;98379.44;1809769;78;20977;-65
2021/12/21 16:29:38;;;;;;;8.15;4.00;;;;;;;-7.49;58.50;98376.35;1811895;78;21443;-59
2021/12/21 16:32:05;;;;;;;8.20;4.58;;;;;;;-7.50;58.64;98374.23;1788715;78;21123;-66
2021/12/21 16:34:35;;;;;;;8.68;4.17;;;;;;;-7.48;58.98;98370.97;1808197;78;21386;-63
2021/12/21 16:37:03;;;;;;;13.83;4.42;;;;;;;-7.46;58.96;98370.31;1817272;78;20885;-65
2021/12/21 16:39:31;;;;;;;8.80;4.40;;;;;;;-7.41;58.90;98374.53;1824620;78;20861;-60
2021/12/21 16:41:58;;;;;;;10.08;4.05;;;;;;;-7.41;58.88;98366.72;1810094;78;20909;-65
2021/12/21 16:44:25;;;;;;;10.60;4.67;;;;;;;-7.40;59.02;98363.15;1813191;78;21745;-65
2021/12/21 16:46:52;;;;;;;6.63;4.33;;;;;;;-7.38;59.31;98361.19;1812673;78;20968;-66
2021/12/21 16:49:18;;;;;;;7.35;4.40;;;;;;;-7.34;59.37;98368.16;1814371;78;20921;-64
2021/12/21 16:51:46;;;;;;;7.97;4.25;;;;;;;-7.34;59.63;98363.77;1813274;78;20913;-64
2021/12/21 16:54:13;;;;;;;9.73;4.35;;;;;;;-7.33;59.58;98360.20;1808037;78;21373;-63
2021/12/21 16:56:39;;;;;;;11.68;4.78;;;;;;;-7.33;59.38;98364.10;1815582;78;21179;-61
2021/12/21 16:59:11;;;;;;;9.93;4.62;;;;;;;-7.32;59.56;98364.41;1804635;78;20851;-65
2021/12/21 17:01:36;;;;;;;9.30;5.05;;;;;;;-7.26;59.55;98356.42;1816602;78;20921;-61
2021/12/21 17:04:03;;;;;;;8.58;4.50;;;;;;;-7.22;59.31;98355.91;1815987;78;20977;-60
2021/12/21 17:06:30;;;;;;;8.78;4.75;;;;;;;-7.20;59.37;98353.95;1808956;78;20989;-60
2021/12/21 17:08:58;;;;;;;8.33;4.50;;;;;;;-7.22;59.43;98351.19;1811365;78;21116;-60
2021/12/21 17:11:26;;;;;;;11.90;5.30;;;;;;;-7.25;59.97;98346.31;1816054;79;20909;-63
2021/12/21 17:13:52;;;;;;;7.83;4.58;;;;;;;-7.23;59.74;98346.47;1810180;78;20949;-61
2021/12/21 17:16:20;;;;;;;7.75;4.75;;;;;;;-7.22;60.00;98344.20;1815870;78;20890;-65
2021/12/21 17:18:47;;;;;;;11.18;5.45;;;;;;;-7.15;60.14;98346.44;1811686;79;20920;-63
2021/12/21 17:21:14;;;;;;;10.15;5.33;;;;;;;-7.13;59.98;98337.97;1811117;78;21123;-62
2021/12/21 17:23:42;;;;;;;9.23;5.33;;;;;;;-7.07;60.40;98345.12;1815871;79;21008;-65
2021/12/21 17:26:09;;;;;;;12.18;5.20;;;;;;;-7.03;60.51;98335.97;1810550;78;20915;-62
2021/12/21 17:28:37;;;;;;;10.53;5.37;;;;;;;-6.99;60.37;98329.91;1811085;78;21039;-60
2021/12/21 17:31:06;;;;;;;10.10;4.95;;;;;;;-7.01;60.50;98333.19;1816106;78;20965;-63
2021/12/21 17:33:37;;;;;;;10.53;4.67;;;;;;;-7.01;60.77;98327.49;1806262;78;21738;-63
2021/12/21 17:36:11;;;;;;;8.65;5.42;;;;;;;-6.97;60.65;98321.44;1816259;78;20905;-64
2021/12/21 17:38:36;;;;;;;7.28;5.08;;;;;;;-6.97;60.63;98317.05;1806822;78;20895;-65
2021/12/21 17:41:03;;;;;;;11.12;5.28;;;;;;;-6.90;60.49;98316.37;1818817;78;20921;-67
2021/12/21 17:43:30;;;;;;;9.20;4.78;;;;;;;-6.90;60.29;98321.06;1805782;78;20920;-61
2021/12/21 17:45:57;;;;;;;11.48;4.85;;;;;;;-6.91;60.60;98321.25;1806153;78;21132;-60
2021/12/21 17:48:23;;;;;;;10.03;5.22;;;;;;;-6.92;60.40;98328.77;1804452;78;21516;-61
2021/12/21 17:50:50;;;;;;;9.38;5.10;;;;;;;-6.90;60.51;98328.09;1821732;78;20840;-61
2021/12/21 17:53:17;;;;;;;10.18;5.12;;;;;;;-6.92;60.44;98320.95;1820216;78;20965;-60
2021/12/21 17:55:44;;;;;;;8.78;4.85;;;;;;;-6.95;60.55;98322.89;1817392;78;20897;-65
2021/12/21 17:58:11;;;;;;;9.93;5.35;;;;;;;-6.92;60.50;98322.25;1816859;78;21772;-64
2021/12/21 18:00:38;;;;;;;8.55;5.28;;;;;;;-6.91;60.47;98325.16;1816137;78;20874;-65
2021/12/21 18:03:05;;;;;;;10.98;5.20;;;;;;;-6.95;60.44;98323.41;1800279;78;20899;-64
2021/12/21 18:05:32;;;;;;;9.10;5.60;;;;;;;-6.94;60.81;98322.41;1806707;78;21013;-63
2021/12/21 18:08:00;;;;;;;12.65;5.75;;;;;;;-6.88;61.17;98319.61;1809471;78;20873;-59
2021/12/21 18:10:29;;;;;;;12.45;5.75;;;;;;;-6.80;61.00;98326.05;1820071;78;21388;-65
2021/12/21 18:12:56;;;;;;;11.83;5.80;;;;;;;-6.73;60.77;98322.59;1801068;78;21602;-60
2021/12/21 18:15:23;;;;;;;8.70;4.95;;;;;;;-6.69;61.02;98314.77;1810402;78;20919;-60
2021/12/21 18:17:50;;;;;;;9.80;5.25;;;;;;;-6.65;60.95;98308.70;1817403;78;20885;-65
2021/12/21 18:20:17;;;;;;;8.55;5.05;;;;;;;-6.65;61.01;98319.13;1815450;78;20865;-63
2021/12/21 18:22:44;;;;;;;11.80;5.50;;;;;;;-6.63;61.17;98298.91;1808488;78;21049;-60
2021/12/21 18:25:12;;;;;;;10.38;5.80;;;;;;;-6.64;61.02;98299.92;1808356;78;21023;-61
2021/12/21 18:27:38;;;;;;;11.97;5.75;;;;;;;-6.70;61.59;98311.84;1816859;78;20846;-61
2021/12/21 18:30:07;;;;;;;10.68;5.90;;;;;;;-6.70;61.60;98311.02;1810354;78;21053;-65
2021/12/21 18:32:34;;;;;;;9.63;5.92;;;;;;;-6.65;61.83;98308.70;1806034;78;21441;-65
2021/12/21 18:35:01;;;;;;;12.40;6.47;;;;;;;-6.60;61.82;98309.00;1815666;79;21894;-61
2021/12/21 18:37:31;;;;;;;9.55;5.40;;;;;;;-6.57;61.93;98309.45;1819354;78;20846;-63
2021/12/21 18:39:58;;;;;;;9.53;5.67;;;;;;;-6.60;62.25;98310.30;1808895;78;20911;-60
2021/12/21 18:42:25;;;;;;;9.70;5.37;;;;;;;-6.61;61.97;98302.16;1808982;78;20895;-65
2021/12/21 18:44:52;;;;;;;10.25;6.12;;;;;;;-6.61;62.38;98304.77;1819227;78;21029;-61
2021/12/21 18:47:19;;;;;;;11.88;6.20;;;;;;;-6.59;62.43;98304.09;1805151;78;21076;-62
2021/12/21 18:49:46;;;;;;;9.65;5.72;;;;;;;-6.55;62.38;98310.11;1806436;78;20910;-63
2021/12/21 18:52:16;;;;;;;10.55;5.90;;;;;;;-6.50;62.09;98305.16;1811843;78;20921;-65